Flight Track Log - Related Links

Times and Time Zones

All times are in EDT time to prevent confusion due to time zone crossing. See the POE251 flight status page for this flight to view local times or setup timezone preferences in your user account.


Time Position Orientation Groundspeed Altitude Reporting Facility
EDT Latitude Longitude Course Direction KTS MPH feet Rate Location/Type
Tue 09:49:55 AM 43.5833 -79.4000 64° Northeast 180 207 2,100  Level Toronto Center
Tue 09:50:55 AM 43.5333 -79.4000 180° South 220 253 2,900 700 Climbing Toronto Center
Tue 09:51:55 AM 43.5500 -79.3333 71° East 210 242 3,500 1,200 Climbing Toronto Center
Tue 09:52:55 AM 43.6167 -79.2667 36° Northeast 250 288 5,300 1,900 Climbing Toronto Center
Tue 09:53:00 AM 43.8601 -78.7646 68° East  Level FlightAware Approximate
Tue 09:53:55 AM 43.6667 -79.2167 36° Northeast 260 299 7,300  Level Toronto Center
Tue 09:54:00 AM 43.8960 -78.6580 55° Northeast  Level FlightAware Approximate
Tue 09:54:55 AM 43.7167 -79.1500 44° Northeast 270 311 9,200  Level Toronto Center
Tue 09:55:00 AM 43.9385 -78.5557 64° Northeast  Level FlightAware Approximate
Tue 09:55:55 AM 43.7500 -79.0333 68° East 300 345 11,000  Level Toronto Center
Tue 09:56:55 AM 43.8000 -78.9167 59° Northeast 310 357 13,100 2,050 Climbing Toronto Center
Tue 09:57:55 AM 43.8333 -78.8167 65° Northeast 310 357 15,100 2,000 Climbing Toronto Center
Tue 09:58:55 AM 43.8833 -78.7000 59° Northeast 310 357 17,100 1,850 Climbing Toronto Center
Tue 09:59:55 AM 43.9167 -78.6167 61° Northeast 320 368 18,800 1,550 Climbing Toronto Center
Tue 10:00:55 AM 43.9667 -78.5000 59° Northeast 330 380 20,200 1,300 Climbing Toronto Center
Tue 10:01:55 AM 43.9833 -78.3833 79° East 340 391 21,400 1,250 Climbing Toronto Center
Tue 10:02:55 AM 44.0333 -78.2667 59° Northeast 340 391 22,700 800 Climbing Toronto Center
Tue 10:03:55 AM 44.0833 -78.1500 59° Northeast 350 403 23,000 149 Climbing Toronto Center
Tue 10:04:56 AM 44.1333 -78.0500 55° Northeast 350 403 23,000  Level Montreal Center
Tue 10:05:56 AM 44.1833 -77.9333 59° Northeast 350 403 23,000  Level Montreal Center
Tue 10:06:56 AM 44.2333 -77.8167 59° Northeast 350 403 23,000  Level Montreal Center
Tue 10:07:56 AM 44.2833 -77.7000 59° Northeast 350 403 23,000  Level Montreal Center
Tue 10:08:55 AM 44.3500 -77.5500 58° Northeast 350 403 23,000  Level Toronto Center
Tue 10:09:55 AM 44.4000 -77.4667 50° Northeast 350 403 23,000  Level Toronto Center
Tue 10:10:55 AM 44.4500 -77.3500 59° Northeast 350 403 23,000  Level Toronto Center
Tue 10:11:55 AM 44.5000 -77.2167 62° Northeast 350 403 23,000  Level Toronto Center
Tue 10:12:55 AM 44.5500 -77.1000 59° Northeast 340 391 23,000  Level Toronto Center
Tue 10:13:55 AM 44.6000 -77.0167 50° Northeast 340 391 23,000  Level Toronto Center
Tue 10:14:56 AM 44.6667 -76.9167 47° Northeast 340 391 23,000 -446 Level Montreal Center
Tue 10:15:56 AM 44.7167 -76.8167 55° Northeast 340 391 22,100 -1,700 Descending Montreal Center
Tue 10:16:56 AM 44.7833 -76.6833 55° Northeast 380 437 19,600 -2,622 Descending Montreal Center
Tue 10:17:55 AM 44.8333 -76.5333 65° Northeast 390 449 16,900 -2,319 Descending Toronto Center
Tue 10:18:55 AM 44.9000 -76.4000 55° Northeast 370 426 15,000 -1,983 Descending Toronto Center
Tue 10:19:56 AM 44.9500 -76.3167 50° Northeast 350 403 12,900 -1,636 Descending Montreal Center
Tue 10:20:56 AM 45.0000 -76.2333 50° Northeast 320 368 11,700 -1,600 Descending Montreal Center
Tue 10:21:56 AM 45.0333 -76.1167 68° East 300 345 9,700 -1,950 Descending Montreal Center
Tue 10:22:56 AM 45.0333 -76.0000 90° East 280 322 7,800 -2,000 Descending Montreal Center
Tue 10:23:56 AM 45.0500 -75.8667 80° East 270 311 5,700 -2,000 Descending Montreal Center
Tue 10:24:56 AM 45.0667 -75.7833 74° East 270 311 3,800 -1,350 Descending Montreal Center
Tue 10:25:56 AM 45.0833 -75.6833 77° East 230 265 3,000 -400 Descending Montreal Center
Tue 10:26:56 AM 45.1000 -75.6167 70° East 220 253 3,000  Level Montreal Center
Tue 10:27:56 AM 45.1333 -75.5167 65° Northeast 220 253 3,000  Level Montreal Center
Tue 10:28:56 AM 45.1667 -75.4667 47° Northeast 220 253 3,000  Level Montreal Center
Tue 10:29:56 AM 45.2167 -75.5000 335° Northwest 180 207 3,000 -400 Level Montreal Center
Tue 10:30:56 AM 45.2333 -75.5333 305° West 150 173 2,200 -750 Descending Montreal Center
Tue 10:31:56 AM 45.2667 -75.5833 313° West 130 150 1,500 -700 Descending Montreal Center
Tue 10:32:56 AM 45.2833 -75.6333 295° West 120 138 800 -550 Descending Montreal Center
Tue 10:33:56 AM 45.3000 -75.6667 305° West 120 138 400 -400 Descending Montreal Center

Login

Don't have an account? Register now (free) for customized features, flight alerts, and more!